EXS95WL LEMH-EGNT
Flight info
| Callsign | EXS95WL |
|---|---|
| Flight time | 2h 23m |
| Altitude | 38000 |
| Route | MEROS DCT LAPIT DCT CHELY DCT LUMAS DCT SOFFY DCT MRM DCT MTL DCT ETREK DCT MADOT DCT MOPEM DCT CACHI DCT AVLON DCT OKRIX DCT BRY DCT CLM DCT KOPOR DCT VESAN DCT RATUK DCT SOVAT L613 MAMUL UY250 RIMTO RIMT1N |
| Aircraft | B738/M-SDE2E3FGHIRWXY/LB1 |
Departure
| Time | 2026-05-07 19:46 |
|---|---|
| Airport | Menorca Airport (LEMH) |
Arrival
| Time | 2026-05-07 22:09 |
|---|---|
| Airport | Newcastle International Airport (EGNT) |
| Time | Latitude | Longitude | Altitude | Speed | Heading |
|---|---|---|---|---|---|
| 2026-05-07 19:06 | 39.86423 | 4.22392 | 298 ft | 0 kts | 98° |
| 2026-05-07 19:38 | 39.86425 | 4.22374 | 299 ft | 4 kts | 102° |
| 2026-05-07 19:38 | 39.86432 | 4.22341 | 297 ft | 4 kts | 118° |
| 2026-05-07 19:39 | 39.86448 | 4.22317 | 298 ft | 4 kts | 167° |
| 2026-05-07 19:39 | 39.86456 | 4.22315 | 299 ft | 1 kts | 188° |
| 2026-05-07 19:41 | 39.86440 | 4.22312 | 298 ft | 6 kts | 188° |
| 2026-05-07 19:41 | 39.86377 | 4.22300 | 294 ft | 12 kts | 188° |
| 2026-05-07 19:42 | 39.86279 | 4.22279 | 298 ft | 16 kts | 189° |
| 2026-05-07 19:42 | 39.86190 | 4.22237 | 295 ft | 12 kts | 245° |
| 2026-05-07 19:42 | 39.86191 | 4.22130 | 294 ft | 12 kts | 272° |
| 2026-05-07 19:42 | 39.86125 | 4.22079 | 297 ft | 14 kts | 188° |
| 2026-05-07 19:43 | 39.86001 | 4.22052 | 296 ft | 22 kts | 190° |
| 2026-05-07 19:43 | 39.85841 | 4.22018 | 295 ft | 23 kts | 188° |
| 2026-05-07 19:43 | 39.85684 | 4.21986 | 295 ft | 22 kts | 188° |
| 2026-05-07 19:43 | 39.85532 | 4.21957 | 294 ft | 22 kts | 191° |
| 2026-05-07 19:44 | 39.85373 | 4.21919 | 288 ft | 26 kts | 189° |
| 2026-05-07 19:44 | 39.85193 | 4.21884 | 281 ft | 20 kts | 188° |
| 2026-05-07 19:44 | 39.85132 | 4.21799 | 282 ft | 15 kts | 278° |
| 2026-05-07 19:44 | 39.85148 | 4.21672 | 284 ft | 13 kts | 284° |
| 2026-05-07 19:45 | 39.85201 | 4.21649 | 286 ft | 4 kts | 10° |
| 2026-05-07 19:45 | 39.85299 | 4.21672 | 286 ft | 41 kts | 9° |
| 2026-05-07 19:45 | 39.85808 | 4.21777 | 297 ft | 105 kts | 9° |
| 2026-05-07 19:45 | 39.86719 | 4.21952 | 362 ft | 151 kts | 11° |
| 2026-05-07 19:46 | 39.87767 | 4.22197 | 909 ft | 156 kts | 13° |
| 2026-05-07 19:46 | 39.88885 | 4.22462 | 1444 ft | 171 kts | 14° |
| 2026-05-07 19:46 | 39.90116 | 4.22737 | 1986 ft | 184 kts | 14° |
| 2026-05-07 19:46 | 39.91474 | 4.23019 | 2287 ft | 211 kts | 14° |
| 2026-05-07 19:47 | 39.93001 | 4.23331 | 2517 ft | 232 kts | 13° |
| 2026-05-07 19:47 | 39.94683 | 4.23677 | 2696 ft | 257 kts | 13° |
| 2026-05-07 19:47 | 39.96476 | 4.24048 | 3352 ft | 262 kts | 13° |
| 2026-05-07 19:47 | 39.98294 | 4.24426 | 4115 ft | 268 kts | 12° |
| 2026-05-07 19:48 | 40.00141 | 4.24813 | 4891 ft | 271 kts | 12° |
| 2026-05-07 19:48 | 40.02021 | 4.25220 | 5598 ft | 277 kts | 12° |
| 2026-05-07 19:48 | 40.03928 | 4.25666 | 6360 ft | 279 kts | 13° |
| 2026-05-07 19:48 | 40.05826 | 4.26120 | 7065 ft | 283 kts | 13° |
| 2026-05-07 19:49 | 40.07770 | 4.26586 | 7797 ft | 285 kts | 13° |
| 2026-05-07 19:49 | 40.09727 | 4.27055 | 8552 ft | 287 kts | 13° |
| 2026-05-07 19:49 | 40.11706 | 4.27528 | 9269 ft | 291 kts | 13° |
| 2026-05-07 19:49 | 40.13706 | 4.28006 | 9984 ft | 294 kts | 13° |
| 2026-05-07 19:50 | 40.15757 | 4.28497 | 10385 ft | 309 kts | 12° |
| 2026-05-07 19:50 | 40.17946 | 4.29023 | 10546 ft | 330 kts | 12° |
| 2026-05-07 19:50 | 40.20257 | 4.29576 | 10920 ft | 343 kts | 12° |
| 2026-05-07 19:50 | 40.22624 | 4.30141 | 11514 ft | 348 kts | 12° |
| 2026-05-07 19:51 | 40.25017 | 4.30710 | 12209 ft | 351 kts | 12° |
| 2026-05-07 19:51 | 40.27429 | 4.31286 | 12905 ft | 354 kts | 12° |
| 2026-05-07 19:51 | 40.29868 | 4.31868 | 13616 ft | 358 kts | 12° |
| 2026-05-07 19:51 | 40.32338 | 4.32459 | 14256 ft | 363 kts | 12° |
| 2026-05-07 19:52 | 40.34833 | 4.33057 | 14872 ft | 367 kts | 12° |
| 2026-05-07 19:52 | 40.37367 | 4.33664 | 15493 ft | 372 kts | 11° |
| 2026-05-07 19:52 | 40.39937 | 4.34281 | 16093 ft | 378 kts | 11° |
| 2026-05-07 19:52 | 40.42537 | 4.34905 | 16724 ft | 382 kts | 11° |
| 2026-05-07 19:53 | 40.45173 | 4.35538 | 17319 ft | 387 kts | 11° |
| 2026-05-07 19:53 | 40.47840 | 4.36180 | 17930 ft | 393 kts | 11° |
| 2026-05-07 19:53 | 40.50510 | 4.36822 | 18490 ft | 397 kts | 11° |
| 2026-05-07 19:53 | 40.53247 | 4.37474 | 19022 ft | 401 kts | 11° |
| 2026-05-07 19:54 | 40.56005 | 4.38126 | 19572 ft | 405 kts | 11° |
| 2026-05-07 19:54 | 40.58790 | 4.38784 | 20107 ft | 409 kts | 10° |
| 2026-05-07 19:54 | 40.61600 | 4.39449 | 20633 ft | 413 kts | 10° |
| 2026-05-07 19:54 | 40.64439 | 4.40122 | 21142 ft | 416 kts | 10° |
| 2026-05-07 19:55 | 40.67306 | 4.40803 | 21642 ft | 420 kts | 9° |
| 2026-05-07 19:55 | 40.70198 | 4.41490 | 22149 ft | 424 kts | 9° |
| 2026-05-07 19:55 | 40.73111 | 4.42184 | 22649 ft | 428 kts | 9° |
| 2026-05-07 19:55 | 40.76056 | 4.42886 | 23137 ft | 431 kts | 9° |
| 2026-05-07 19:56 | 40.79021 | 4.43593 | 23603 ft | 435 kts | 9° |
| 2026-05-07 19:56 | 40.82014 | 4.44308 | 24000 ft | 439 kts | 9° |
| 2026-05-07 19:56 | 40.85027 | 4.45028 | 24404 ft | 442 kts | 9° |
| 2026-05-07 19:56 | 40.88064 | 4.45754 | 24785 ft | 445 kts | 9° |
| 2026-05-07 19:57 | 40.91126 | 4.46490 | 25184 ft | 448 kts | 9° |
| 2026-05-07 19:57 | 40.94199 | 4.47239 | 25586 ft | 451 kts | 9° |
| 2026-05-07 19:57 | 40.97292 | 4.47996 | 25979 ft | 454 kts | 9° |
| 2026-05-07 19:57 | 41.00408 | 4.48761 | 26346 ft | 457 kts | 9° |
| 2026-05-07 19:58 | 41.03541 | 4.49529 | 26714 ft | 459 kts | 9° |
| 2026-05-07 19:58 | 41.06697 | 4.50302 | 27104 ft | 462 kts | 9° |
| 2026-05-07 19:58 | 41.09861 | 4.51076 | 27486 ft | 464 kts | 8° |
| 2026-05-07 19:58 | 41.13050 | 4.51854 | 27835 ft | 467 kts | 8° |
| 2026-05-07 19:59 | 41.16250 | 4.52634 | 28173 ft | 470 kts | 8° |
| 2026-05-07 19:59 | 41.19476 | 4.53421 | 28514 ft | 472 kts | 8° |
| 2026-05-07 19:59 | 41.22667 | 4.54201 | 28843 ft | 475 kts | 8° |
| 2026-05-07 19:59 | 41.25923 | 4.54998 | 29179 ft | 477 kts | 8° |
| 2026-05-07 20:00 | 41.29201 | 4.55802 | 29501 ft | 480 kts | 8° |
| 2026-05-07 20:00 | 41.32488 | 4.56608 | 29799 ft | 482 kts | 8° |
| 2026-05-07 20:00 | 41.35799 | 4.57422 | 30056 ft | 485 kts | 8° |
| 2026-05-07 20:00 | 41.39125 | 4.58241 | 30271 ft | 488 kts | 8° |
| 2026-05-07 20:01 | 41.42481 | 4.59067 | 30483 ft | 491 kts | 8° |
| 2026-05-07 20:01 | 41.45846 | 4.59897 | 30749 ft | 493 kts | 8° |
| 2026-05-07 20:01 | 41.49216 | 4.60729 | 31105 ft | 492 kts | 8° |
| 2026-05-07 20:01 | 41.52584 | 4.61562 | 31430 ft | 492 kts | 8° |
| 2026-05-07 20:02 | 41.55958 | 4.62396 | 31698 ft | 494 kts | 8° |
| 2026-05-07 20:02 | 41.59334 | 4.63232 | 31973 ft | 495 kts | 8° |
| 2026-05-07 20:02 | 41.62723 | 4.64072 | 32274 ft | 495 kts | 8° |
| 2026-05-07 20:02 | 41.66112 | 4.64913 | 32574 ft | 495 kts | 8° |
| 2026-05-07 20:03 | 41.69503 | 4.65755 | 32849 ft | 497 kts | 8° |
| 2026-05-07 20:03 | 41.72910 | 4.66605 | 33083 ft | 498 kts | 9° |
| 2026-05-07 20:03 | 41.76294 | 4.67662 | 33363 ft | 500 kts | 13° |
| 2026-05-07 20:03 | 41.79641 | 4.68930 | 33680 ft | 500 kts | 15° |
| 2026-05-07 20:04 | 41.82973 | 4.70287 | 33967 ft | 500 kts | 15° |
| 2026-05-07 20:04 | 41.86297 | 4.71665 | 34191 ft | 501 kts | 15° |
| 2026-05-07 20:04 | 41.89629 | 4.73038 | 34476 ft | 500 kts | 15° |
| 2026-05-07 20:04 | 41.92934 | 4.74381 | 34998 ft | 492 kts | 14° |
| 2026-05-07 20:05 | 41.96192 | 4.75687 | 35407 ft | 488 kts | 14° |
| 2026-05-07 20:05 | 41.99400 | 4.76959 | 35632 ft | 488 kts | 14° |
| 2026-05-07 20:05 | 42.02664 | 4.78245 | 35792 ft | 489 kts | 14° |
| 2026-05-07 20:05 | 42.05934 | 4.79532 | 35995 ft | 490 kts | 14° |
| 2026-05-07 20:06 | 42.09200 | 4.80820 | 36287 ft | 488 kts | 13° |
| 2026-05-07 20:06 | 42.12445 | 4.82102 | 36576 ft | 486 kts | 13° |
| 2026-05-07 20:06 | 42.15692 | 4.83386 | 36779 ft | 487 kts | 13° |
| 2026-05-07 20:06 | 42.18942 | 4.84675 | 36956 ft | 487 kts | 13° |
| 2026-05-07 20:07 | 42.22191 | 4.85964 | 37197 ft | 486 kts | 13° |
| 2026-05-07 20:07 | 42.25432 | 4.87253 | 37475 ft | 484 kts | 13° |
| 2026-05-07 20:07 | 42.28654 | 4.88536 | 37745 ft | 482 kts | 13° |
| 2026-05-07 20:07 | 42.31869 | 4.89817 | 37963 ft | 482 kts | 13° |
| 2026-05-07 20:08 | 42.38336 | 4.92396 | 37994 ft | 485 kts | 13° |
| 2026-05-07 20:08 | 42.44798 | 4.94980 | 37988 ft | 482 kts | 13° |
| 2026-05-07 20:09 | 42.51211 | 4.97551 | 37999 ft | 479 kts | 13° |
| 2026-05-07 20:10 | 42.60776 | 5.01394 | 37992 ft | 477 kts | 13° |
| 2026-05-07 20:10 | 42.67128 | 5.03952 | 37996 ft | 476 kts | 13° |
| 2026-05-07 20:11 | 42.73472 | 5.06513 | 38000 ft | 476 kts | 13° |
| 2026-05-07 20:11 | 42.79827 | 5.09083 | 37998 ft | 477 kts | 13° |
| 2026-05-07 20:12 | 42.86199 | 5.11667 | 37999 ft | 479 kts | 13° |
| 2026-05-07 20:12 | 42.92599 | 5.14267 | 38014 ft | 481 kts | 13° |
| 2026-05-07 20:13 | 42.98981 | 5.16867 | 38001 ft | 482 kts | 13° |
| 2026-05-07 20:13 | 43.05416 | 5.19485 | 37993 ft | 483 kts | 13° |
| 2026-05-07 20:14 | 43.11863 | 5.22090 | 38007 ft | 483 kts | 13° |
| 2026-05-07 20:14 | 43.18306 | 5.24699 | 37991 ft | 483 kts | 13° |
| 2026-05-07 20:15 | 43.24741 | 5.27315 | 37989 ft | 481 kts | 13° |
| 2026-05-07 20:15 | 43.31148 | 5.29924 | 38007 ft | 480 kts | 13° |
| 2026-05-07 20:16 | 43.37627 | 5.31470 | 38006 ft | 467 kts | 353° |
| 2026-05-07 20:16 | 43.43893 | 5.29991 | 37999 ft | 452 kts | 336° |
| 2026-05-07 20:17 | 43.49839 | 5.27206 | 37992 ft | 451 kts | 335° |
| 2026-05-07 20:17 | 43.55774 | 5.24409 | 37995 ft | 451 kts | 335° |
| 2026-05-07 20:18 | 43.60714 | 5.22120 | 37989 ft | 451 kts | 336° |
| 2026-05-07 20:18 | 43.66671 | 5.19384 | 37991 ft | 451 kts | 336° |
| 2026-05-07 20:19 | 43.72629 | 5.16652 | 38014 ft | 451 kts | 336° |
| 2026-05-07 20:19 | 43.78594 | 5.13910 | 37996 ft | 452 kts | 336° |
| 2026-05-07 20:20 | 43.84577 | 5.11152 | 38004 ft | 453 kts | 336° |
| 2026-05-07 20:20 | 43.90561 | 5.08387 | 37990 ft | 454 kts | 336° |
| 2026-05-07 20:21 | 43.96530 | 5.05624 | 38010 ft | 455 kts | 336° |
| 2026-05-07 20:21 | 44.02532 | 5.02839 | 37989 ft | 455 kts | 336° |
| 2026-05-07 20:22 | 44.08539 | 5.00047 | 37994 ft | 455 kts | 336° |
| 2026-05-07 20:22 | 44.14545 | 4.97249 | 38005 ft | 455 kts | 336° |
| 2026-05-07 20:23 | 44.20546 | 4.94446 | 38005 ft | 455 kts | 336° |
| 2026-05-07 20:23 | 44.26542 | 4.91640 | 37992 ft | 454 kts | 336° |
| 2026-05-07 20:24 | 44.32530 | 4.88832 | 37990 ft | 453 kts | 336° |
| 2026-05-07 20:24 | 44.38500 | 4.86026 | 37979 ft | 452 kts | 336° |
| 2026-05-07 20:25 | 44.44453 | 4.83222 | 37985 ft | 451 kts | 336° |
| 2026-05-07 20:25 | 44.50397 | 4.80416 | 37981 ft | 450 kts | 336° |
| 2026-05-07 20:26 | 44.56320 | 4.77729 | 37983 ft | 452 kts | 343° |
| 2026-05-07 20:26 | 44.62554 | 4.76249 | 37991 ft | 455 kts | 347° |
| 2026-05-07 20:27 | 44.68811 | 4.74996 | 37984 ft | 454 kts | 347° |
| 2026-05-07 20:27 | 44.75055 | 4.73677 | 37990 ft | 453 kts | 347° |
| 2026-05-07 20:28 | 44.81276 | 4.72305 | 38002 ft | 452 kts | 347° |
| 2026-05-07 20:28 | 44.87494 | 4.70917 | 37997 ft | 452 kts | 346° |
| 2026-05-07 20:29 | 44.93715 | 4.69527 | 38005 ft | 453 kts | 347° |
| 2026-05-07 20:29 | 44.99940 | 4.68135 | 38011 ft | 453 kts | 347° |
| 2026-05-07 20:30 | 45.06172 | 4.66739 | 38006 ft | 454 kts | 347° |
| 2026-05-07 20:30 | 45.12372 | 4.65347 | 38022 ft | 454 kts | 347° |
| 2026-05-07 20:31 | 45.18615 | 4.63943 | 38002 ft | 455 kts | 347° |
| 2026-05-07 20:31 | 45.24865 | 4.62520 | 38023 ft | 455 kts | 347° |
| 2026-05-07 20:32 | 45.31112 | 4.61086 | 38021 ft | 455 kts | 347° |
| 2026-05-07 20:32 | 45.37357 | 4.59649 | 38013 ft | 455 kts | 347° |
| 2026-05-07 20:33 | 45.43602 | 4.58212 | 38013 ft | 454 kts | 347° |
| 2026-05-07 20:33 | 45.49836 | 4.56774 | 38028 ft | 454 kts | 347° |
| 2026-05-07 20:34 | 45.56065 | 4.55333 | 38020 ft | 453 kts | 347° |
| 2026-05-07 20:34 | 45.62293 | 4.53890 | 38018 ft | 453 kts | 347° |
| 2026-05-07 20:35 | 45.68512 | 4.52445 | 38018 ft | 453 kts | 347° |
| 2026-05-07 20:35 | 45.74722 | 4.51001 | 38018 ft | 452 kts | 347° |
| 2026-05-07 20:36 | 45.80930 | 4.49556 | 38017 ft | 452 kts | 347° |
| 2026-05-07 20:36 | 45.87096 | 4.48119 | 38017 ft | 452 kts | 347° |
| 2026-05-07 20:37 | 45.93300 | 4.46669 | 38015 ft | 452 kts | 347° |
| 2026-05-07 20:37 | 45.99517 | 4.45212 | 38013 ft | 453 kts | 347° |
| 2026-05-07 20:38 | 46.05736 | 4.43751 | 38014 ft | 453 kts | 347° |
| 2026-05-07 20:38 | 46.11954 | 4.42288 | 38023 ft | 453 kts | 347° |
| 2026-05-07 20:39 | 46.18183 | 4.40818 | 38018 ft | 454 kts | 347° |
| 2026-05-07 20:39 | 46.24409 | 4.39346 | 38022 ft | 454 kts | 347° |
| 2026-05-07 20:40 | 46.30622 | 4.37754 | 38032 ft | 452 kts | 343° |
| 2026-05-07 20:40 | 46.36731 | 4.35635 | 38017 ft | 451 kts | 342° |
| 2026-05-07 20:41 | 46.42813 | 4.33412 | 38013 ft | 451 kts | 342° |
| 2026-05-07 20:42 | 46.54986 | 4.29085 | 38018 ft | 450 kts | 342° |
| 2026-05-07 20:42 | 46.61070 | 4.26943 | 38014 ft | 450 kts | 342° |
| 2026-05-07 20:43 | 46.67147 | 4.24798 | 38020 ft | 449 kts | 342° |
| 2026-05-07 20:43 | 46.73217 | 4.22649 | 38019 ft | 449 kts | 342° |
| 2026-05-07 20:44 | 46.79284 | 4.20496 | 38021 ft | 449 kts | 342° |
| 2026-05-07 20:44 | 46.85348 | 4.18338 | 38029 ft | 448 kts | 342° |
| 2026-05-07 20:45 | 46.91402 | 4.16179 | 38039 ft | 448 kts | 342° |
| 2026-05-07 20:45 | 46.97472 | 4.14009 | 38028 ft | 448 kts | 342° |
| 2026-05-07 20:46 | 47.03496 | 4.11851 | 38020 ft | 449 kts | 342° |
| 2026-05-07 20:46 | 47.09504 | 4.09274 | 38026 ft | 445 kts | 335° |
| 2026-05-07 20:47 | 47.15180 | 4.05855 | 38043 ft | 444 kts | 333° |
| 2026-05-07 20:47 | 47.20888 | 4.02342 | 38036 ft | 445 kts | 333° |
| 2026-05-07 20:48 | 47.26614 | 3.98895 | 38022 ft | 445 kts | 334° |
| 2026-05-07 20:48 | 47.32358 | 3.95471 | 38046 ft | 445 kts | 334° |
| 2026-05-07 20:49 | 47.38103 | 3.92043 | 38039 ft | 446 kts | 334° |
| 2026-05-07 20:49 | 47.43853 | 3.88602 | 38036 ft | 446 kts | 334° |
| 2026-05-07 20:50 | 47.49608 | 3.85148 | 38039 ft | 446 kts | 334° |
| 2026-05-07 20:50 | 47.55358 | 3.81689 | 38044 ft | 446 kts | 334° |
| 2026-05-07 20:51 | 47.61120 | 3.78230 | 38038 ft | 447 kts | 334° |
| 2026-05-07 20:51 | 47.66877 | 3.74779 | 38033 ft | 446 kts | 334° |
| 2026-05-07 20:52 | 47.72627 | 3.71321 | 38035 ft | 446 kts | 334° |
| 2026-05-07 20:52 | 47.78367 | 3.67858 | 38045 ft | 445 kts | 334° |
| 2026-05-07 20:53 | 47.84108 | 3.64385 | 38040 ft | 445 kts | 334° |
| 2026-05-07 20:53 | 47.89837 | 3.60912 | 38035 ft | 445 kts | 334° |
| 2026-05-07 20:54 | 47.95560 | 3.57436 | 38043 ft | 444 kts | 334° |
| 2026-05-07 20:54 | 48.01273 | 3.53942 | 38047 ft | 444 kts | 334° |
| 2026-05-07 20:55 | 48.06979 | 3.50429 | 38043 ft | 443 kts | 334° |
| 2026-05-07 20:55 | 48.12642 | 3.46933 | 38042 ft | 443 kts | 334° |
| 2026-05-07 20:56 | 48.18334 | 3.43413 | 38057 ft | 443 kts | 334° |
| 2026-05-07 20:56 | 48.24028 | 3.39884 | 38056 ft | 443 kts | 334° |
| 2026-05-07 20:57 | 48.29725 | 3.36344 | 38045 ft | 443 kts | 334° |
| 2026-05-07 20:57 | 48.35424 | 3.32795 | 38051 ft | 443 kts | 334° |
| 2026-05-07 20:58 | 48.41130 | 3.29233 | 38061 ft | 444 kts | 334° |
| 2026-05-07 20:58 | 48.46823 | 3.25623 | 38054 ft | 444 kts | 334° |
| 2026-05-07 20:59 | 48.52516 | 3.21981 | 38042 ft | 445 kts | 333° |
| 2026-05-07 20:59 | 48.58213 | 3.18332 | 38057 ft | 445 kts | 333° |
| 2026-05-07 21:00 | 48.63914 | 3.14676 | 38055 ft | 445 kts | 334° |
| 2026-05-07 21:00 | 48.69620 | 3.11009 | 38060 ft | 446 kts | 334° |
| 2026-05-07 21:01 | 48.75331 | 3.07329 | 38055 ft | 446 kts | 334° |
| 2026-05-07 21:01 | 48.81042 | 3.03640 | 38056 ft | 446 kts | 334° |
| 2026-05-07 21:02 | 48.86643 | 2.99753 | 38053 ft | 444 kts | 328° |
| 2026-05-07 21:02 | 48.91984 | 2.95073 | 38055 ft | 443 kts | 326° |
| 2026-05-07 21:03 | 48.97286 | 2.90281 | 38053 ft | 443 kts | 326° |
| 2026-05-07 21:03 | 49.02613 | 2.85536 | 38055 ft | 443 kts | 327° |
| 2026-05-07 21:04 | 49.07948 | 2.80826 | 38077 ft | 443 kts | 327° |
| 2026-05-07 21:04 | 49.13292 | 2.76110 | 38068 ft | 443 kts | 327° |
| 2026-05-07 21:05 | 49.18628 | 2.71388 | 38068 ft | 443 kts | 327° |
| 2026-05-07 21:05 | 49.23961 | 2.66654 | 38057 ft | 443 kts | 327° |
| 2026-05-07 21:06 | 49.29290 | 2.61910 | 38068 ft | 443 kts | 327° |
| 2026-05-07 21:06 | 49.34592 | 2.57179 | 38064 ft | 443 kts | 327° |
| 2026-05-07 21:07 | 49.39952 | 2.52385 | 38066 ft | 443 kts | 327° |
| 2026-05-07 21:07 | 49.45242 | 2.47640 | 38064 ft | 443 kts | 327° |
| 2026-05-07 21:08 | 49.50578 | 2.42883 | 38087 ft | 444 kts | 329° |
| 2026-05-07 21:08 | 49.53423 | 2.40997 | 38060 ft | 448 kts | 340° |
| 2026-05-07 21:08 | 49.56412 | 2.39609 | 38079 ft | 448 kts | 341° |
| 2026-05-07 21:09 | 49.62410 | 2.37006 | 38072 ft | 448 kts | 341° |
| 2026-05-07 21:09 | 49.67395 | 2.34820 | 38066 ft | 448 kts | 341° |
| 2026-05-07 21:10 | 49.73380 | 2.32126 | 38074 ft | 448 kts | 341° |
| 2026-05-07 21:10 | 49.79357 | 2.29398 | 38064 ft | 448 kts | 341° |
| 2026-05-07 21:11 | 49.85327 | 2.26661 | 38065 ft | 448 kts | 340° |
| 2026-05-07 21:11 | 49.94297 | 2.22537 | 38069 ft | 448 kts | 341° |
| 2026-05-07 21:12 | 50.00270 | 2.19784 | 38069 ft | 448 kts | 341° |
| 2026-05-07 21:12 | 50.06250 | 2.17021 | 38066 ft | 448 kts | 340° |
| 2026-05-07 21:13 | 50.12228 | 2.14251 | 38069 ft | 448 kts | 340° |
| 2026-05-07 21:13 | 50.18207 | 2.11474 | 38083 ft | 448 kts | 340° |
| 2026-05-07 21:14 | 50.24182 | 2.08690 | 38069 ft | 448 kts | 340° |
| 2026-05-07 21:14 | 50.30119 | 2.05918 | 38074 ft | 448 kts | 340° |
| 2026-05-07 21:15 | 50.36020 | 2.02844 | 38063 ft | 445 kts | 331° |
| 2026-05-07 21:15 | 50.41110 | 1.97544 | 38090 ft | 438 kts | 316° |
| 2026-05-07 21:16 | 50.45672 | 1.91206 | 38077 ft | 438 kts | 315° |
| 2026-05-07 21:16 | 50.50234 | 1.84862 | 38083 ft | 438 kts | 316° |
| 2026-05-07 21:17 | 50.54831 | 1.78545 | 38075 ft | 439 kts | 316° |
| 2026-05-07 21:17 | 50.59434 | 1.72231 | 38076 ft | 439 kts | 316° |
| 2026-05-07 21:18 | 50.64033 | 1.65904 | 38085 ft | 439 kts | 316° |
| 2026-05-07 21:18 | 50.68629 | 1.59559 | 38076 ft | 439 kts | 316° |
| 2026-05-07 21:19 | 50.73224 | 1.53195 | 38080 ft | 439 kts | 316° |
| 2026-05-07 21:19 | 50.77819 | 1.46818 | 38079 ft | 439 kts | 316° |
| 2026-05-07 21:20 | 50.82407 | 1.40439 | 38089 ft | 439 kts | 316° |
| 2026-05-07 21:20 | 50.86998 | 1.34042 | 38099 ft | 440 kts | 316° |
| 2026-05-07 21:21 | 50.91582 | 1.27635 | 38095 ft | 440 kts | 316° |
| 2026-05-07 21:21 | 50.96168 | 1.21208 | 38097 ft | 440 kts | 316° |
| 2026-05-07 21:22 | 51.00747 | 1.14772 | 38101 ft | 440 kts | 316° |
| 2026-05-07 21:22 | 51.05291 | 1.08371 | 38101 ft | 439 kts | 315° |
| 2026-05-07 21:23 | 51.10131 | 1.02395 | 38109 ft | 441 kts | 322° |
| 2026-05-07 21:23 | 51.15218 | 0.96888 | 38097 ft | 442 kts | 323° |
| 2026-05-07 21:24 | 51.20299 | 0.91380 | 38043 ft | 442 kts | 323° |
| 2026-05-07 21:24 | 51.25364 | 0.85791 | 38022 ft | 442 kts | 322° |
| 2026-05-07 21:25 | 51.30411 | 0.80167 | 38010 ft | 442 kts | 322° |
| 2026-05-07 21:25 | 51.35428 | 0.74550 | 38105 ft | 443 kts | 322° |
| 2026-05-07 21:26 | 51.40472 | 0.68892 | 38098 ft | 443 kts | 322° |
| 2026-05-07 21:26 | 51.45510 | 0.63224 | 38102 ft | 443 kts | 322° |
| 2026-05-07 21:27 | 51.50550 | 0.57541 | 38090 ft | 443 kts | 322° |
| 2026-05-07 21:27 | 51.55585 | 0.51847 | 38106 ft | 443 kts | 322° |
| 2026-05-07 21:28 | 51.60618 | 0.46139 | 38109 ft | 443 kts | 322° |
| 2026-05-07 21:28 | 51.65654 | 0.40412 | 38097 ft | 443 kts | 322° |
| 2026-05-07 21:29 | 51.70683 | 0.34678 | 38092 ft | 443 kts | 322° |
| 2026-05-07 21:29 | 51.75709 | 0.28930 | 38106 ft | 443 kts | 322° |
| 2026-05-07 21:30 | 51.80695 | 0.23212 | 38094 ft | 442 kts | 322° |
| 2026-05-07 21:30 | 51.85712 | 0.17443 | 38105 ft | 443 kts | 322° |
| 2026-05-07 21:31 | 51.90734 | 0.11652 | 38108 ft | 443 kts | 322° |
| 2026-05-07 21:31 | 51.95748 | 0.05853 | 38106 ft | 443 kts | 322° |
| 2026-05-07 21:32 | 52.00767 | 0.00034 | 38119 ft | 443 kts | 322° |
| 2026-05-07 21:32 | 52.05986 | -0.05329 | 38083 ft | 445 kts | 329° |
| 2026-05-07 21:33 | 52.11450 | -0.09972 | 38073 ft | 446 kts | 330° |
| 2026-05-07 21:33 | 52.16939 | -0.14670 | 38069 ft | 446 kts | 329° |
| 2026-05-07 21:34 | 52.22406 | -0.19469 | 38068 ft | 446 kts | 329° |
| 2026-05-07 21:34 | 52.27859 | -0.24293 | 38073 ft | 446 kts | 329° |
| 2026-05-07 21:35 | 52.33312 | -0.29122 | 38073 ft | 446 kts | 329° |
| 2026-05-07 21:35 | 52.38773 | -0.33968 | 38071 ft | 446 kts | 329° |
| 2026-05-07 21:36 | 52.44226 | -0.38819 | 38075 ft | 446 kts | 329° |
| 2026-05-07 21:36 | 52.49677 | -0.43685 | 38078 ft | 446 kts | 329° |
| 2026-05-07 21:37 | 52.55137 | -0.48572 | 38081 ft | 446 kts | 329° |
| 2026-05-07 21:37 | 52.60584 | -0.53463 | 38074 ft | 447 kts | 329° |
| 2026-05-07 21:38 | 52.66040 | -0.58375 | 38073 ft | 446 kts | 329° |
| 2026-05-07 21:38 | 52.71482 | -0.63288 | 38073 ft | 446 kts | 329° |
| 2026-05-07 21:39 | 52.76892 | -0.68186 | 38081 ft | 446 kts | 329° |
| 2026-05-07 21:39 | 52.82331 | -0.73126 | 38072 ft | 446 kts | 329° |
| 2026-05-07 21:40 | 52.87772 | -0.78082 | 38074 ft | 446 kts | 328° |
| 2026-05-07 21:40 | 52.93212 | -0.83051 | 38071 ft | 446 kts | 328° |
| 2026-05-07 21:41 | 52.98647 | -0.88029 | 38069 ft | 446 kts | 328° |
| 2026-05-07 21:41 | 53.04081 | -0.93016 | 38071 ft | 446 kts | 328° |
| 2026-05-07 21:42 | 53.09520 | -0.98015 | 38059 ft | 447 kts | 328° |
| 2026-05-07 21:42 | 53.14958 | -1.03028 | 38065 ft | 447 kts | 328° |
| 2026-05-07 21:43 | 53.17694 | -1.05557 | 37621 ft | 453 kts | 328° |
| 2026-05-07 21:43 | 53.20435 | -1.08094 | 37311 ft | 447 kts | 328° |
| 2026-05-07 21:43 | 53.23050 | -1.10516 | 36883 ft | 443 kts | 328° |
| 2026-05-07 21:43 | 53.25728 | -1.13000 | 36515 ft | 438 kts | 328° |
| 2026-05-07 21:44 | 53.28338 | -1.15426 | 36138 ft | 434 kts | 328° |
| 2026-05-07 21:44 | 53.30964 | -1.17871 | 35752 ft | 431 kts | 328° |
| 2026-05-07 21:44 | 53.33579 | -1.20310 | 35367 ft | 427 kts | 328° |
| 2026-05-07 21:44 | 53.36166 | -1.22725 | 34981 ft | 424 kts | 328° |
| 2026-05-07 21:45 | 53.38694 | -1.25085 | 34608 ft | 421 kts | 328° |
| 2026-05-07 21:45 | 53.41370 | -1.27109 | 34215 ft | 421 kts | 339° |
| 2026-05-07 21:45 | 53.44203 | -1.28358 | 33825 ft | 421 kts | 348° |
| 2026-05-07 21:45 | 53.47124 | -1.28832 | 33425 ft | 419 kts | 354° |
| 2026-05-07 21:46 | 53.50017 | -1.29095 | 33042 ft | 417 kts | 354° |
| 2026-05-07 21:46 | 53.52925 | -1.29391 | 32682 ft | 421 kts | 353° |
| 2026-05-07 21:46 | 53.55862 | -1.29777 | 32289 ft | 425 kts | 349° |
| 2026-05-07 21:46 | 53.58733 | -1.30843 | 31898 ft | 420 kts | 339° |
| 2026-05-07 21:47 | 53.61337 | -1.32599 | 31539 ft | 413 kts | 329° |
| 2026-05-07 21:47 | 53.63802 | -1.35021 | 31181 ft | 407 kts | 326° |
| 2026-05-07 21:47 | 53.66195 | -1.37522 | 30813 ft | 404 kts | 325° |
| 2026-05-07 21:47 | 53.68585 | -1.40012 | 30451 ft | 402 kts | 326° |
| 2026-05-07 21:48 | 53.70967 | -1.42455 | 30086 ft | 400 kts | 326° |
| 2026-05-07 21:48 | 53.73337 | -1.44868 | 29672 ft | 397 kts | 326° |
| 2026-05-07 21:48 | 53.75697 | -1.47271 | 29264 ft | 395 kts | 326° |
| 2026-05-07 21:48 | 53.78046 | -1.49666 | 28898 ft | 394 kts | 326° |
| 2026-05-07 21:49 | 53.80364 | -1.52034 | 28521 ft | 392 kts | 326° |
| 2026-05-07 21:49 | 53.82644 | -1.54367 | 28147 ft | 391 kts | 326° |
| 2026-05-07 21:49 | 53.84971 | -1.56752 | 27770 ft | 390 kts | 326° |
| 2026-05-07 21:49 | 53.87285 | -1.59128 | 27403 ft | 389 kts | 326° |
| 2026-05-07 21:50 | 53.89542 | -1.61447 | 27033 ft | 388 kts | 326° |
| 2026-05-07 21:50 | 53.91847 | -1.63819 | 26658 ft | 386 kts | 326° |
| 2026-05-07 21:50 | 53.94137 | -1.66179 | 26281 ft | 384 kts | 326° |
| 2026-05-07 21:50 | 53.96412 | -1.68526 | 25914 ft | 382 kts | 326° |
| 2026-05-07 21:51 | 53.98683 | -1.70871 | 25563 ft | 380 kts | 326° |
| 2026-05-07 21:51 | 54.00931 | -1.73196 | 25193 ft | 378 kts | 326° |
| 2026-05-07 21:51 | 54.03160 | -1.75502 | 25060 ft | 371 kts | 326° |
| 2026-05-07 21:51 | 54.05360 | -1.77776 | 24936 ft | 369 kts | 326° |
| 2026-05-07 21:52 | 54.07544 | -1.80035 | 24628 ft | 366 kts | 326° |
| 2026-05-07 21:52 | 54.09716 | -1.82285 | 24222 ft | 365 kts | 326° |
| 2026-05-07 21:52 | 54.11884 | -1.84525 | 23786 ft | 365 kts | 327° |
| 2026-05-07 21:52 | 54.14272 | -1.86034 | 23303 ft | 371 kts | 349° |
| 2026-05-07 21:53 | 54.16853 | -1.86016 | 22897 ft | 373 kts | 6° |
| 2026-05-07 21:53 | 54.19399 | -1.85245 | 22517 ft | 371 kts | 8° |
| 2026-05-07 21:53 | 54.21925 | -1.84396 | 22086 ft | 370 kts | 9° |
| 2026-05-07 21:53 | 54.24448 | -1.83544 | 21653 ft | 369 kts | 9° |
| 2026-05-07 21:54 | 54.26972 | -1.82711 | 21165 ft | 370 kts | 9° |
| 2026-05-07 21:54 | 54.29491 | -1.81899 | 20770 ft | 368 kts | 8° |
| 2026-05-07 21:54 | 54.31969 | -1.81112 | 20421 ft | 365 kts | 8° |
| 2026-05-07 21:54 | 54.34459 | -1.80326 | 20060 ft | 363 kts | 8° |
| 2026-05-07 21:55 | 54.36944 | -1.79544 | 19686 ft | 362 kts | 8° |
| 2026-05-07 21:55 | 54.39423 | -1.78762 | 19309 ft | 361 kts | 9° |
| 2026-05-07 21:55 | 54.41886 | -1.77984 | 18940 ft | 359 kts | 9° |
| 2026-05-07 21:55 | 54.44337 | -1.77209 | 18584 ft | 358 kts | 9° |
| 2026-05-07 21:56 | 54.46780 | -1.76435 | 18211 ft | 356 kts | 9° |
| 2026-05-07 21:56 | 54.49219 | -1.75662 | 17835 ft | 354 kts | 9° |
| 2026-05-07 21:56 | 54.51647 | -1.74892 | 17431 ft | 353 kts | 9° |
| 2026-05-07 21:56 | 54.54055 | -1.74126 | 17053 ft | 351 kts | 9° |
| 2026-05-07 21:57 | 54.56423 | -1.73373 | 16705 ft | 349 kts | 9° |
| 2026-05-07 21:57 | 54.58807 | -1.72613 | 16350 ft | 347 kts | 9° |
| 2026-05-07 21:57 | 54.61177 | -1.71857 | 16001 ft | 345 kts | 9° |
| 2026-05-07 21:57 | 54.63537 | -1.71103 | 15640 ft | 344 kts | 9° |
| 2026-05-07 21:58 | 54.65886 | -1.70352 | 15282 ft | 339 kts | 9° |
| 2026-05-07 21:58 | 54.68165 | -1.69448 | 14728 ft | 337 kts | 21° |
| 2026-05-07 21:58 | 54.70168 | -1.67365 | 14114 ft | 336 kts | 41° |
| 2026-05-07 21:58 | 54.71900 | -1.64706 | 13598 ft | 331 kts | 44° |
| 2026-05-07 21:59 | 54.73013 | -1.62905 | 13216 ft | 330 kts | 45° |
| 2026-05-07 21:59 | 54.74672 | -1.60185 | 12634 ft | 327 kts | 45° |
| 2026-05-07 21:59 | 54.76319 | -1.57466 | 12062 ft | 325 kts | 45° |
| 2026-05-07 21:59 | 54.77944 | -1.54766 | 11562 ft | 321 kts | 45° |
| 2026-05-07 22:00 | 54.79529 | -1.52110 | 11069 ft | 317 kts | 45° |
| 2026-05-07 22:00 | 54.81103 | -1.49449 | 10552 ft | 315 kts | 45° |
| 2026-05-07 22:00 | 54.82655 | -1.46801 | 10066 ft | 311 kts | 45° |
| 2026-05-07 22:00 | 54.84186 | -1.44163 | 9501 ft | 310 kts | 45° |
| 2026-05-07 22:01 | 54.85702 | -1.41538 | 9014 ft | 306 kts | 45° |
| 2026-05-07 22:01 | 54.87199 | -1.38946 | 8446 ft | 304 kts | 45° |
| 2026-05-07 22:01 | 54.88701 | -1.36354 | 7875 ft | 303 kts | 45° |
| 2026-05-07 22:01 | 54.90193 | -1.33794 | 7386 ft | 300 kts | 45° |
| 2026-05-07 22:02 | 54.91789 | -1.31472 | 6813 ft | 300 kts | 28° |
| 2026-05-07 22:02 | 54.93783 | -1.30454 | 6462 ft | 298 kts | 0° |
| 2026-05-07 22:02 | 54.95743 | -1.30984 | 6356 ft | 277 kts | 340° |
| 2026-05-07 22:02 | 54.97511 | -1.32079 | 6233 ft | 262 kts | 336° |
| 2026-05-07 22:03 | 54.99175 | -1.33167 | 6116 ft | 248 kts | 336° |
| 2026-05-07 22:03 | 55.00747 | -1.34196 | 6013 ft | 235 kts | 336° |
| 2026-05-07 22:03 | 55.02233 | -1.35160 | 5820 ft | 223 kts | 336° |
| 2026-05-07 22:03 | 55.03664 | -1.36081 | 5382 ft | 222 kts | 336° |
| 2026-05-07 22:04 | 55.05119 | -1.37015 | 4923 ft | 222 kts | 336° |
| 2026-05-07 22:04 | 55.06569 | -1.37941 | 4392 ft | 221 kts | 336° |
| 2026-05-07 22:04 | 55.08020 | -1.38863 | 3845 ft | 222 kts | 335° |
| 2026-05-07 22:04 | 55.09301 | -1.40229 | 3297 ft | 212 kts | 305° |
| 2026-05-07 22:05 | 55.09974 | -1.42350 | 3026 ft | 191 kts | 279° |
| 2026-05-07 22:05 | 55.10029 | -1.44511 | 2871 ft | 169 kts | 247° |
| 2026-05-07 22:05 | 55.09646 | -1.46427 | 2745 ft | 169 kts | 246° |
| 2026-05-07 22:05 | 55.09255 | -1.48308 | 2662 ft | 165 kts | 243° |
| 2026-05-07 22:06 | 55.08799 | -1.50129 | 2460 ft | 160 kts | 240° |
| 2026-05-07 22:06 | 55.08353 | -1.51822 | 2248 ft | 147 kts | 239° |
| 2026-05-07 22:06 | 55.07923 | -1.53433 | 2058 ft | 146 kts | 238° |
| 2026-05-07 22:06 | 55.07497 | -1.55036 | 1860 ft | 142 kts | 238° |
| 2026-05-07 22:07 | 55.07094 | -1.56551 | 1679 ft | 136 kts | 238° |
| 2026-05-07 22:07 | 55.06695 | -1.58043 | 1499 ft | 137 kts | 238° |
| 2026-05-07 22:07 | 55.06302 | -1.59541 | 1320 ft | 134 kts | 238° |
| 2026-05-07 22:07 | 55.05922 | -1.61025 | 1135 ft | 134 kts | 238° |
| 2026-05-07 22:08 | 55.05508 | -1.62539 | 903 ft | 142 kts | 238° |
| 2026-05-07 22:08 | 55.05078 | -1.64083 | 731 ft | 141 kts | 242° |
| 2026-05-07 22:08 | 55.04672 | -1.65642 | 531 ft | 142 kts | 244° |
| 2026-05-07 22:08 | 55.04262 | -1.67224 | 329 ft | 143 kts | 243° |
| 2026-05-07 22:09 | 55.03856 | -1.68740 | 250 ft | 121 kts | 245° |
| 2026-05-07 22:09 | 55.03612 | -1.69654 | 258 ft | 52 kts | 246° |
| 2026-05-07 22:09 | 55.03585 | -1.70020 | 261 ft | 24 kts | 279° |
| 2026-05-07 22:09 | 55.03596 | -1.70205 | 264 ft | 10 kts | 272° |
| 2026-05-07 22:10 | 55.03599 | -1.70329 | 266 ft | 10 kts | 272° |
| 2026-05-07 22:10 | 55.03628 | -1.70426 | 266 ft | 10 kts | 340° |
| 2026-05-07 22:10 | 55.03696 | -1.70431 | 266 ft | 10 kts | 5° |
| 2026-05-07 22:10 | 55.03762 | -1.70426 | 266 ft | 9 kts | 347° |
| 2026-05-07 22:11 | 55.03799 | -1.70509 | 266 ft | 9 kts | 277° |
| 2026-05-07 22:11 | 55.03804 | -1.70620 | 266 ft | 9 kts | 274° |
| 2026-05-07 22:11 | 55.03809 | -1.70727 | 266 ft | 9 kts | 279° |
| 2026-05-07 22:11 | 55.03833 | -1.70750 | 266 ft | 4 kts | 358° |
| 2026-05-07 22:12 | 55.03859 | -1.70739 | 266 ft | 4 kts | 18° |
| 2026-05-07 22:12 | 55.03874 | -1.70730 | 266 ft | 1 kts | 17° |
| 2026-05-07 22:12 | 55.03878 | -1.70728 | 266 ft | 0 kts | 17° |